Time;durP1;ratioP1;P1;durP2;ratioP2;P2;SDS_P1;SDS_P2;PMS_P1;PMS_P2;Temp;Humidity;BMP_temperature;BMP_pressure;BME280_temperature;BME280_humidity;BME280_pressure;Samples;Min_cycle;Max_cycle;Signal;HPM_P1;HPM_P2
2024/01/15 05:22:33;;;;;;;20.38;7.35;;;;;;;-1.45;100.00;99205.78;5089672;28;20385;-33
2024/01/15 05:24:58;;;;;;;8.77;5.68;;;;;;;-1.54;100.00;99209.16;5089442;28;20040;-34
2024/01/15 05:27:24;;;;;;;18.48;9.15;;;;;;;-1.51;100.00;99211.50;5089158;28;20067;-34
2024/01/15 05:29:49;;;;;;;16.73;8.77;;;;;;;-1.52;100.00;99207.25;5089381;28;20032;-33
2024/01/15 05:32:14;;;;;;;17.73;9.35;;;;;;;-1.48;100.00;99206.06;5089423;28;20048;-33
2024/01/15 05:34:40;;;;;;;23.15;9.50;;;;;;;-1.35;100.00;99202.47;5089592;28;20042;-34
2024/01/15 05:37:05;;;;;;;26.75;11.32;;;;;;;-1.39;100.00;99192.25;5089141;28;20711;-34
2024/01/15 05:39:31;;;;;;;21.45;9.50;;;;;;;-1.26;100.00;99199.09;5089280;28;20075;-33
2024/01/15 05:41:56;;;;;;;18.83;8.38;;;;;;;-1.36;100.00;99209.47;5089134;28;20063;-33
2024/01/15 05:44:22;;;;;;;19.05;9.98;;;;;;;-1.39;100.00;99212.31;5088043;28;20051;-33
2024/01/15 05:46:47;;;;;;;13.73;7.85;;;;;;;-1.48;100.00;99203.44;5087690;28;20020;-33
2024/01/15 05:49:12;;;;;;;21.17;9.55;;;;;;;-1.44;100.00;99214.47;5088975;28;20391;-33
2024/01/15 05:51:38;;;;;;;13.43;7.50;;;;;;;-1.47;100.00;99204.28;5089222;28;20040;-33
2024/01/15 05:54:03;;;;;;;24.05;10.18;;;;;;;-1.47;100.00;99197.25;5089228;28;20044;-34
2024/01/15 05:56:29;;;;;;;18.00;9.55;;;;;;;-1.35;100.00;99198.06;5088824;28;20089;-33
2024/01/15 05:58:54;;;;;;;11.85;7.07;;;;;;;-1.52;100.00;99199.41;5089090;28;20044;-34
2024/01/15 06:01:19;;;;;;;22.23;10.85;;;;;;;-1.46;100.00;99182.41;5088799;28;20075;-34
2024/01/15 06:03:45;;;;;;;21.48;10.30;;;;;;;-1.47;100.00;99171.13;5088996;28;20051;-33
2024/01/15 06:06:10;;;;;;;21.70;9.23;;;;;;;-1.51;100.00;99161.88;5088756;28;20453;-34
2024/01/15 06:08:35;;;;;;;16.70;6.55;;;;;;;-1.46;100.00;99162.34;5088600;28;20044;-34
2024/01/15 06:11:01;;;;;;;16.73;8.65;;;;;;;-1.33;100.00;99158.75;5088993;28;20032;-34
2024/01/15 06:13:26;;;;;;;18.65;10.10;;;;;;;-1.34;100.00;99165.75;5088953;28;20115;-34
2024/01/15 06:15:52;;;;;;;16.70;9.73;;;;;;;-1.31;100.00;99162.06;5088682;28;20040;-34
2024/01/15 06:18:17;;;;;;;19.05;10.35;;;;;;;-1.27;100.00;99160.88;5088406;28;20055;-34
2024/01/15 06:20:42;;;;;;;20.10;10.35;;;;;;;-1.29;100.00;99160.16;5088971;28;20079;-34
2024/01/15 06:23:08;;;;;;;15.68;8.00;;;;;;;-1.41;100.00;99165.44;5089781;28;20040;-33
2024/01/15 06:25:33;;;;;;;6.40;4.30;;;;;;;-1.42;100.00;99176.00;5090087;28;20036;-34
2024/01/15 06:27:59;;;;;;;16.60;8.50;;;;;;;-1.31;100.00;99170.72;5090656;28;20582;-35
2024/01/15 06:30:24;;;;;;;18.15;8.57;;;;;;;-1.31;100.00;99182.97;5100575;28;20036;-34
2024/01/15 06:32:50;;;;;;;19.17;9.52;;;;;;;-1.14;100.00;99193.72;5089155;28;20036;-33
2024/01/15 06:35:15;;;;;;;15.10;7.68;;;;;;;-1.31;100.00;99196.03;5074641;28;20089;-33
2024/01/15 06:37:41;;;;;;;20.20;8.85;;;;;;;-1.35;100.00;99194.63;5074313;28;20071;-34
2024/01/15 06:40:07;;;;;;;14.15;8.35;;;;;;;-1.38;100.00;99188.69;5074517;28;20474;-33
2024/01/15 06:42:33;;;;;;;17.02;8.93;;;;;;;-1.20;100.00;99177.72;5074590;28;20055;-33
2024/01/15 06:44:58;;;;;;;20.48;10.77;;;;;;;-1.25;100.00;99183.28;5074544;28;20033;-33
2024/01/15 06:47:23;;;;;;;20.83;9.65;;;;;;;-1.29;100.00;99179.28;5074212;28;20395;-33
2024/01/15 06:49:50;;;;;;;14.57;7.53;;;;;;;-1.26;100.00;99171.19;5073042;28;20048;-33
2024/01/15 06:52:15;;;;;;;18.20;9.48;;;;;;;-1.20;100.00;99170.69;5074573;28;20033;-32
2024/01/15 06:54:41;;;;;;;17.67;8.48;;;;;;;-1.23;100.00;99184.03;5074302;28;20127;-34
2024/01/15 06:57:06;;;;;;;12.63;7.35;;;;;;;-1.30;100.00;99182.03;5073931;28;20033;-33
2024/01/15 06:59:32;;;;;;;13.93;7.85;;;;;;;-1.23;100.00;99186.63;5074168;28;20143;-33
2024/01/15 07:01:59;;;;;;;19.88;7.90;;;;;;;-1.12;100.00;99183.13;5072761;28;20032;-33
2024/01/15 07:04:24;;;;;;;20.80;9.93;;;;;;;-1.10;100.00;99184.69;5074026;28;20052;-33
2024/01/15 07:06:49;;;;;;;17.52;9.13;;;;;;;-1.28;100.00;99180.13;5073838;28;20043;-34
2024/01/15 07:09:16;;;;;;;11.98;7.10;;;;;;;-1.34;100.00;99183.22;5074006;28;20037;-34
2024/01/15 07:11:48;;;;;;;17.27;8.27;;;;;;;-1.31;100.00;99196.84;5073842;28;20037;-34
2024/01/15 07:14:14;;;;;;;22.65;10.50;;;;;;;-1.19;100.00;99189.81;5073813;28;20466;-34
2024/01/15 07:16:39;;;;;;;20.13;10.57;;;;;;;-1.21;100.00;99203.00;5073448;28;20024;-34
2024/01/15 07:19:05;;;;;;;18.67;8.77;;;;;;;-1.21;100.00;99202.19;5073806;28;20060;-33
2024/01/15 07:21:30;;;;;;;19.58;9.63;;;;;;;-1.20;100.00;99201.22;5074073;28;20480;-34
2024/01/15 07:23:55;;;;;;;16.17;8.98;;;;;;;-1.24;100.00;99202.41;5075440;28;20036;-34
2024/01/15 07:26:21;;;;;;;15.88;7.38;;;;;;;-1.25;100.00;99205.97;5077555;28;20055;-34
2024/01/15 07:28:46;;;;;;;19.05;10.23;;;;;;;-1.13;100.00;99197.16;5076967;28;20037;-34
2024/01/15 07:31:12;;;;;;;18.60;9.68;;;;;;;-1.21;100.00;99199.56;5079990;28;20067;-34
2024/01/15 07:33:37;;;;;;;20.90;10.00;;;;;;;-1.22;100.00;99200.53;5082194;28;20041;-34
2024/01/15 07:36:03;;;;;;;15.25;8.07;;;;;;;-1.21;100.00;99205.63;5075631;28;20051;-34
2024/01/15 07:38:28;;;;;;;12.05;6.45;;;;;;;-1.15;100.00;99199.06;5073346;28;20389;-34
2024/01/15 07:40:55;;;;;;;17.52;9.88;;;;;;;-1.12;100.00;99217.09;5073621;28;20377;-34
2024/01/15 07:43:20;;;;;;;18.48;9.18;;;;;;;-1.06;100.00;99206.16;5073294;28;20538;-34
2024/01/15 07:45:46;;;;;;;22.50;10.77;;;;;;;-0.90;100.00;99203.13;5071015;28;20032;-34
2024/01/15 07:48:11;;;;;;;18.50;9.18;;;;;;;-1.05;100.00;99207.81;5072953;28;20039;-34
2024/01/15 07:50:37;;;;;;;13.27;6.25;;;;;;;-1.03;100.00;99205.94;5073384;28;20039;-34
2024/01/15 07:53:03;;;;;;;18.52;9.07;;;;;;;-0.87;100.00;99205.50;5073414;28;20041;-34
2024/01/15 07:55:29;;;;;;;13.85;7.47;;;;;;;-1.06;100.00;99211.38;5073333;28;20151;-34
2024/01/15 07:57:58;;;;;;;18.90;8.70;;;;;;;-0.90;100.00;99203.13;5072839;28;20143;-34
2024/01/15 08:00:24;;;;;;;20.27;9.68;;;;;;;-0.85;100.00;99211.41;5073171;28;20048;-34
2024/01/15 08:02:51;;;;;;;19.15;10.55;;;;;;;-0.87;100.00;99213.34;5073114;28;20081;-34
2024/01/15 08:05:16;;;;;;;20.00;10.00;;;;;;;-0.73;100.00;99213.03;5073365;28;20397;-34
2024/01/15 08:07:42;;;;;;;21.65;10.40;;;;;;;-0.71;100.00;99208.53;5072914;28;20123;-34
2024/01/15 08:10:07;;;;;;;16.52;8.68;;;;;;;-0.72;100.00;99206.84;5073097;28;20032;-34
2024/01/15 08:12:33;;;;;;;20.95;10.98;;;;;;;-0.69;100.00;99205.78;5072787;28;20040;-33
2024/01/15 08:14:58;;;;;;;17.95;9.68;;;;;;;-0.70;100.00;99204.13;5072550;28;20142;-35
2024/01/15 08:17:27;;;;;;;20.95;10.57;;;;;;;-0.70;100.00;99206.72;5072353;28;20048;-34
2024/01/15 08:19:53;;;;;;;19.73;9.88;;;;;;;-0.70;100.00;99202.31;5072615;28;20047;-34
2024/01/15 08:22:18;;;;;;;19.77;10.60;;;;;;;-0.60;100.00;99194.53;5072283;28;20032;-34
2024/01/15 08:24:44;;;;;;;16.60;9.52;;;;;;;-0.30;100.00;99193.75;5072446;28;20150;-34
2024/01/15 08:27:09;;;;;;;17.45;9.18;;;;;;;-0.43;100.00;99193.97;5072180;28;20043;-34
2024/01/15 08:29:35;;;;;;;15.05;9.02;;;;;;;-0.52;100.00;99186.91;5072123;28;20066;-33
2024/01/15 08:32:00;;;;;;;21.98;9.70;;;;;;;-0.32;100.00;99183.44;5071120;28;20024;-34
2024/01/15 08:34:26;;;;;;;15.48;8.75;;;;;;;-0.47;100.00;99176.84;5072329;28;20579;-34
2024/01/15 08:36:51;;;;;;;16.15;9.38;;;;;;;-0.46;100.00;99172.44;5072158;28;20043;-34
2024/01/15 08:39:18;;;;;;;16.05;9.88;;;;;;;-0.18;100.00;99176.19;5065954;28;20037;-35
2024/01/15 08:41:43;;;;;;;18.05;9.40;;;;;;;-0.21;100.00;99165.97;5061441;28;20557;-33
2024/01/15 08:44:08;;;;;;;11.52;6.63;;;;;;;-0.22;100.00;99165.13;5070149;28;20052;-34
2024/01/15 08:46:34;;;;;;;13.38;6.82;;;;;;;-0.19;100.00;99164.06;5067045;28;20060;-33
2024/01/15 08:48:59;;;;;;;20.73;9.40;;;;;;;-0.05;100.00;99161.09;5060393;28;20075;-33
2024/01/15 08:51:24;;;;;;;15.60;7.75;;;;;;;-0.09;100.00;99178.00;5065214;28;20048;-34
2024/01/15 08:53:50;;;;;;;12.93;6.95;;;;;;;-0.19;100.00;99182.38;5063021;28;20106;-34
2024/01/15 08:56:15;;;;;;;15.43;8.50;;;;;;;-0.02;100.00;99185.19;5061729;28;20060;-33
2024/01/15 08:58:41;;;;;;;16.15;8.18;;;;;;;-0.14;100.00;99188.03;5061999;28;20060;-34
2024/01/15 09:01:06;;;;;;;17.65;8.55;;;;;;;-0.02;100.00;99182.56;5060472;28;20059;-34
2024/01/15 09:03:33;;;;;;;12.90;7.78;;;;;;;-0.05;100.00;99182.03;5062492;28;20111;-34
2024/01/15 09:05:59;;;;;;;12.38;7.65;;;;;;;0.01;100.00;99173.66;5061789;28;20540;-34
2024/01/15 09:08:25;;;;;;;15.45;8.13;;;;;;;0.07;100.00;99175.75;5060405;28;20127;-34
2024/01/15 09:10:51;;;;;;;13.98;6.55;;;;;;;-0.01;100.00;99162.47;5060654;28;20124;-34
2024/01/15 09:13:16;;;;;;;11.13;7.47;;;;;;;0.14;100.00;99157.72;5061720;28;20103;-34
2024/01/15 09:15:42;;;;;;;13.50;7.43;;;;;;;0.36;100.00;99164.50;5062021;28;20041;-33
2024/01/15 09:18:08;;;;;;;17.25;8.18;;;;;;;0.26;100.00;99165.31;5060095;28;20112;-34
2024/01/15 09:20:33;;;;;;;15.15;7.60;;;;;;;0.32;100.00;99163.94;5062108;28;20127;-34
2024/01/15 09:22:58;;;;;;;16.00;7.97;;;;;;;0.25;100.00;99160.19;5061558;28;20110;-34
2024/01/15 09:25:25;;;;;;;15.25;7.32;;;;;;;0.47;100.00;99159.16;5060749;28;20119;-33
2024/01/15 09:27:50;;;;;;;13.70;7.40;;;;;;;0.45;100.00;99156.66;5062206;28;20509;-34
2024/01/15 09:30:15;;;;;;;13.68;7.68;;;;;;;0.62;98.63;99149.09;5061522;28;20132;-35
2024/01/15 09:32:41;;;;;;;14.00;7.93;;;;;;;0.42;100.00;99149.09;5066211;28;20036;-34
2024/01/15 09:35:07;;;;;;;10.88;6.30;;;;;;;0.46;100.00;99163.59;5075498;28;20047;-34
2024/01/15 09:37:32;;;;;;;15.25;7.53;;;;;;;0.43;100.00;99158.59;5062863;28;20057;-34
2024/01/15 09:39:58;;;;;;;11.80;6.05;;;;;;;0.30;100.00;99152.78;5061384;28;20440;-35
2024/01/15 09:42:27;;;;;;;10.75;5.88;;;;;;;0.51;100.00;99147.44;5061965;28;20059;-34
2024/01/15 09:44:52;;;;;;;12.45;6.28;;;;;;;0.43;100.00;99153.34;5055222;28;20032;-34
2024/01/15 09:47:20;;;;;;;12.15;5.75;;;;;;;0.54;100.00;99153.25;5071470;28;20047;-35
2024/01/15 09:49:45;;;;;;;9.60;5.50;;;;;;;0.36;100.00;99152.25;5071514;28;20122;-35
2024/01/15 09:52:11;;;;;;;11.18;6.13;;;;;;;0.44;100.00;99147.16;5071651;28;20083;-35
2024/01/15 09:54:38;;;;;;;10.43;6.32;;;;;;;0.48;100.00;99148.53;5071490;28;20043;-35
2024/01/15 09:57:04;;;;;;;12.10;7.00;;;;;;;0.52;100.00;99131.59;5071340;28;20044;-36
2024/01/15 09:59:31;;;;;;;11.48;6.65;;;;;;;0.57;100.00;99138.19;5071684;28;20032;-33
2024/01/15 10:01:57;;;;;;;14.13;7.05;;;;;;;0.57;100.00;99125.91;5071684;28;20483;-36
2024/01/15 10:04:23;;;;;;;14.20;7.82;;;;;;;0.49;100.00;99134.47;5071653;28;20040;-34
2024/01/15 10:06:51;;;;;;;9.07;5.50;;;;;;;0.45;100.00;99124.38;5071446;28;20053;-34
2024/01/15 10:09:17;;;;;;;13.63;6.13;;;;;;;0.35;100.00;99116.53;5074906;28;20044;-35
2024/01/15 10:11:44;;;;;;;15.25;8.25;;;;;;;0.43;100.00;99118.47;5075355;28;20040;-34
2024/01/15 10:14:12;;;;;;;13.02;7.80;;;;;;;0.29;100.00;99113.63;5075389;28;20032;-34
2024/01/15 10:16:41;;;;;;;13.20;6.93;;;;;;;0.53;100.00;99104.41;5074966;28;20075;-34
2024/01/15 10:19:10;;;;;;;11.65;7.93;;;;;;;0.39;100.00;99107.44;5075056;28;20056;-36
2024/01/15 10:21:36;;;;;;;16.30;6.50;;;;;;;0.30;100.00;99108.25;5074810;28;20040;-34
2024/01/15 10:24:02;;;;;;;14.05;7.45;;;;;;;0.43;100.00;99098.31;5074973;28;20043;-34
2024/01/15 10:26:28;;;;;;;12.68;7.38;;;;;;;0.47;100.00;99096.28;5074762;28;20484;-34
2024/01/15 10:28:54;;;;;;;11.85;7.50;;;;;;;0.30;100.00;99102.19;5074858;28;20052;-34
2024/01/15 10:31:21;;;;;;;12.65;6.00;;;;;;;0.20;100.00;99107.41;5074913;28;20033;-34
2024/01/15 10:33:50;;;;;;;10.85;6.57;;;;;;;0.21;100.00;99102.03;5074799;28;20039;-34
2024/01/15 10:36:16;;;;;;;16.10;7.43;;;;;;;0.18;100.00;99104.09;5074822;28;20036;-34
2024/01/15 10:38:42;;;;;;;16.33;7.68;;;;;;;0.18;100.00;99102.28;5074499;28;20036;-34
2024/01/15 10:41:08;;;;;;;8.45;4.47;;;;;;;0.13;100.00;99101.88;5074482;28;20083;-35
2024/01/15 10:43:33;;;;;;;16.08;7.78;;;;;;;0.35;100.00;99097.38;5074663;28;20060;-34
2024/01/15 10:45:59;;;;;;;14.95;6.93;;;;;;;0.06;100.00;99095.50;5074635;28;20511;-34
2024/01/15 10:48:28;;;;;;;9.55;5.13;;;;;;;0.09;100.00;99092.63;5074283;28;20044;-34
2024/01/15 10:50:53;;;;;;;15.38;7.32;;;;;;;0.23;100.00;99091.41;5074486;28;20043;-33
2024/01/15 10:53:20;;;;;;;17.45;7.28;;;;;;;0.29;100.00;99090.03;5074547;28;20040;-37
2024/01/15 10:55:48;;;;;;;13.68;8.10;;;;;;;0.31;100.00;99081.06;5074348;28;20024;-34
2024/01/15 10:58:14;;;;;;;12.82;7.35;;;;;;;0.48;100.00;99071.72;5074002;28;20089;-33
2024/01/15 11:00:40;;;;;;;14.90;7.40;;;;;;;0.19;100.00;99069.06;5074257;28;20404;-34
2024/01/15 11:03:06;;;;;;;10.95;6.32;;;;;;;0.25;100.00;99069.34;5074432;28;20032;-34
2024/01/15 11:05:41;;;;;;;12.13;6.20;;;;;;;0.16;100.00;99069.34;5074138;28;20036;-34
2024/01/15 11:08:08;;;;;;;11.45;6.55;;;;;;;0.17;100.00;99079.69;5068041;28;20396;-34
2024/01/15 11:10:49;;;;;;;12.75;6.45;;;;;;;0.10;100.00;99069.88;5063736;28;20079;-34
2024/01/15 11:13:33;;;;;;;12.55;6.70;;;;;;;0.13;100.00;99064.38;5064104;28;20126;-34
2024/01/15 11:16:09;;;;;;;10.23;6.20;;;;;;;0.13;100.00;99072.22;5064100;28;20112;-34
2024/01/15 11:18:42;;;;;;;10.32;5.57;;;;;;;0.22;100.00;99069.63;5062250;28;20063;-34
2024/01/15 11:21:07;;;;;;;9.02;5.43;;;;;;;0.13;100.00;99069.59;5063914;28;20235;-34
2024/01/15 11:23:48;;;;;;;11.18;6.85;;;;;;;0.20;100.00;99066.34;5062836;28;20048;-34
2024/01/15 11:26:39;;;;;;;10.85;6.20;;;;;;;0.38;100.00;99060.41;5064238;28;20369;-34
2024/01/15 11:29:07;;;;;;;14.93;6.75;;;;;;;0.39;100.00;99064.66;5056922;28;20427;-34
2024/01/15 11:31:38;;;;;;;8.25;5.00;;;;;;;0.09;100.00;99073.47;5064031;28;20490;-35
2024/01/15 11:34:05;;;;;;;7.60;3.88;;;;;;;0.07;100.00;99075.41;5061640;28;20082;-35
2024/01/15 11:36:46;;;;;;;8.88;5.47;;;;;;;0.01;100.00;99087.25;5053471;28;20477;-35
2024/01/15 11:39:26;;;;;;;9.35;4.55;;;;;;;0.04;100.00;99086.13;5053757;28;20039;-34
2024/01/15 11:41:54;;;;;;;13.48;6.30;;;;;;;0.20;100.00;99092.53;5053573;28;20036;-35
2024/01/15 11:44:19;;;;;;;8.05;4.93;;;;;;;0.19;100.00;99084.78;5053598;28;20064;-34
2024/01/15 11:46:58;;;;;;;10.48;5.93;;;;;;;0.25;100.00;99092.91;5053261;28;20072;-35
2024/01/15 11:49:52;;;;;;;11.27;5.90;;;;;;;0.28;100.00;99093.63;5053296;28;20041;-35
2024/01/15 11:52:21;;;;;;;7.57;4.47;;;;;;;0.03;100.00;99098.41;5050422;28;20564;-35
2024/01/15 11:55:11;;;;;;;12.07;6.38;;;;;;;0.08;100.00;99098.84;5063229;28;20047;-35
2024/01/15 11:57:39;;;;;;;9.85;5.43;;;;;;;0.10;100.00;99102.13;5063616;28;20042;-34
2024/01/15 12:00:07;;;;;;;9.50;5.10;;;;;;;0.24;100.00;99104.38;5063043;28;20555;-34
2024/01/15 12:02:41;;;;;;;11.75;5.60;;;;;;;0.29;100.00;99111.00;5061966;28;20087;-35
2024/01/15 12:05:07;;;;;;;10.85;5.32;;;;;;;0.28;100.00;99110.19;5064406;28;20028;-35
2024/01/15 12:07:33;;;;;;;11.38;5.30;;;;;;;0.49;100.00;99102.19;5072790;28;20024;-34
2024/01/15 12:09:58;;;;;;;10.32;5.55;;;;;;;0.54;100.00;99094.75;5072976;28;20144;-35
2024/01/15 12:12:33;;;;;;;11.88;6.03;;;;;;;0.51;100.00;99095.03;5072775;28;20044;-35
2024/01/15 12:14:59;;;;;;;9.48;5.35;;;;;;;0.53;100.00;99096.56;5072967;28;20502;-34
2024/01/15 12:17:24;;;;;;;9.20;4.97;;;;;;;0.45;100.00;99095.56;5072720;28;20048;-35
2024/01/15 12:19:50;;;;;;;10.18;5.40;;;;;;;0.49;100.00;99099.59;5073114;28;20067;-35
2024/01/15 12:22:15;;;;;;;10.23;5.22;;;;;;;0.46;100.00;99103.31;5072628;28;20036;-35
2024/01/15 12:24:40;;;;;;;10.30;5.13;;;;;;;0.57;100.00;99104.13;5072726;28;20470;-35
2024/01/15 12:27:07;;;;;;;10.38;4.72;;;;;;;0.54;100.00;99098.22;5072707;28;20658;-35
2024/01/15 12:29:33;;;;;;;8.45;4.80;;;;;;;0.55;100.00;99101.66;5072903;28;20032;-34
2024/01/15 12:31:58;;;;;;;6.38;3.38;;;;;;;0.46;100.00;99103.31;5073168;28;20032;-35
2024/01/15 12:34:23;;;;;;;7.28;4.63;;;;;;;0.58;100.00;99103.97;5082197;28;20037;-34
2024/01/15 12:36:49;;;;;;;9.57;5.25;;;;;;;0.60;100.00;99096.00;5079658;28;20123;-35
2024/01/15 12:39:15;;;;;;;9.70;4.97;;;;;;;1.02;100.00;99102.59;5072521;28;20040;-34
2024/01/15 12:41:41;;;;;;;8.38;4.22;;;;;;;1.07;100.00;99095.13;5072516;28;20534;-35
2024/01/15 12:44:06;;;;;;;8.98;4.40;;;;;;;0.94;100.00;99096.41;5072617;28;20086;-35
2024/01/15 12:46:32;;;;;;;5.95;4.13;;;;;;;0.93;100.00;99097.38;5072197;28;20032;-35
2024/01/15 12:48:57;;;;;;;6.65;4.57;;;;;;;0.86;100.00;99104.97;5072178;28;20040;-35
2024/01/15 12:51:26;;;;;;;7.88;4.53;;;;;;;1.07;100.00;99102.19;5072334;28;20032;-37
2024/01/15 12:53:52;;;;;;;8.88;4.53;;;;;;;1.14;100.00;99099.81;5072119;28;20082;-35
2024/01/15 12:56:18;;;;;;;5.35;4.05;;;;;;;1.03;100.00;99106.03;5071920;28;20086;-35
2024/01/15 12:58:43;;;;;;;6.15;3.70;;;;;;;0.92;100.00;99112.28;5072196;28;20426;-35
2024/01/15 13:01:09;;;;;;;7.47;4.32;;;;;;;0.95;100.00;99108.53;5072133;28;20048;-35
2024/01/15 13:03:34;;;;;;;5.68;3.60;;;;;;;1.01;100.00;99102.75;5072023;28;20047;-36
2024/01/15 13:06:00;;;;;;;10.25;4.65;;;;;;;0.92;100.00;99098.34;5072073;28;20036;-36
2024/01/15 13:08:28;;;;;;;7.18;4.97;;;;;;;1.09;100.00;99105.47;5071805;28;20040;-35
2024/01/15 13:10:56;;;;;;;;;;;;;;;1.21;100.00;99117.47;5072583;28;20075;-36
2024/01/15 13:13:21;;;;;;;8.32;4.75;;;;;;;1.26;100.00;99117.06;5072134;28;19920;-36
2024/01/15 13:15:47;;;;;;;7.68;4.95;;;;;;;1.40;100.00;99118.41;5074046;28;20063;-35
2024/01/15 13:18:12;;;;;;;5.18;4.00;;;;;;;1.12;100.00;99115.72;5082087;28;20044;-36
2024/01/15 13:20:38;;;;;;;9.52;4.68;;;;;;;1.29;100.00;99114.97;5072206;28;20045;-35
2024/01/15 13:23:03;;;;;;;7.88;4.53;;;;;;;1.28;100.00;99115.13;5083097;28;20036;-35
2024/01/15 13:25:29;;;;;;;7.07;4.20;;;;;;;1.18;100.00;99122.19;5084012;28;20107;-35
2024/01/15 13:27:55;;;;;;;6.90;4.28;;;;;;;1.18;100.00;99120.41;5085060;28;20561;-36
2024/01/15 13:30:20;;;;;;;7.82;4.72;;;;;;;1.19;100.00;99122.03;5076835;28;20076;-36
2024/01/15 13:32:46;;;;;;;8.85;5.03;;;;;;;1.46;100.00;99123.09;5071785;28;20032;-35
2024/01/15 13:35:13;;;;;;;6.90;3.83;;;;;;;1.11;100.00;99111.44;5070639;28;20033;-35
2024/01/15 13:37:41;;;;;;;6.53;3.42;;;;;;;1.20;100.00;99121.06;5071492;28;20071;-35
2024/01/15 13:40:09;;;;;;;7.00;3.60;;;;;;;1.09;100.00;99134.34;5071669;28;20037;-36
2024/01/15 13:42:37;;;;;;;5.88;3.95;;;;;;;1.09;100.00;99136.97;5084232;28;20021;-35
2024/01/15 13:45:05;;;;;;;5.70;3.47;;;;;;;0.93;100.00;99132.28;5075864;28;20044;-35
2024/01/15 13:47:31;;;;;;;5.18;3.38;;;;;;;1.09;100.00;99134.34;5075335;28;20032;-35
2024/01/15 13:49:57;;;;;;;7.55;4.28;;;;;;;1.04;100.00;99131.28;5075599;28;20466;-35
2024/01/15 13:52:22;;;;;;;6.30;3.78;;;;;;;1.05;100.00;99135.59;5075505;28;20028;-35
2024/01/15 13:54:47;;;;;;;9.15;4.00;;;;;;;1.04;100.00;99141.78;5075498;28;20411;-35
2024/01/15 13:57:13;;;;;;;6.63;4.32;;;;;;;1.16;100.00;99135.44;5075252;28;20090;-35
2024/01/15 13:59:38;;;;;;;7.75;3.90;;;;;;;1.28;100.00;99151.84;5075382;28;20040;-35
2024/01/15 14:02:04;;;;;;;5.22;3.20;;;;;;;1.07;100.00;99157.25;5075252;28;20044;-35
2024/01/15 14:04:30;;;;;;;6.10;4.05;;;;;;;1.28;100.00;99162.34;5075398;28;20040;-35
2024/01/15 14:06:56;;;;;;;4.68;3.17;;;;;;;1.15;100.00;99170.50;5074856;28;20044;-35
2024/01/15 14:09:21;;;;;;;4.28;2.65;;;;;;;1.14;100.00;99178.50;5075187;28;20561;-35
2024/01/15 14:11:47;;;;;;;5.35;4.15;;;;;;;1.21;100.00;99190.09;5075294;28;20078;-36
2024/01/15 14:14:13;;;;;;;4.47;3.67;;;;;;;1.26;100.00;99193.16;5075161;28;20044;-37
2024/01/15 14:16:39;;;;;;;6.25;4.00;;;;;;;1.32;100.00;99195.22;5075041;28;20040;-37
2024/01/15 14:19:06;;;;;;;6.65;4.00;;;;;;;1.27;100.00;99185.13;5074984;28;20044;-37
2024/01/15 14:21:31;;;;;;;6.30;4.27;;;;;;;1.69;100.00;99186.56;5074848;28;20041;-37
2024/01/15 14:23:57;;;;;;;4.68;3.78;;;;;;;1.59;100.00;99189.22;5074830;28;20094;-36
2024/01/15 14:26:22;;;;;;;5.93;4.28;;;;;;;1.48;100.00;99186.75;5074724;28;20053;-37
2024/01/15 14:28:48;;;;;;;7.32;4.07;;;;;;;1.39;100.00;99192.84;5074828;28;20037;-36
2024/01/15 14:31:13;;;;;;;8.05;4.13;;;;;;;1.36;100.00;99207.91;5074943;28;20128;-36
2024/01/15 14:33:39;;;;;;;7.32;3.72;;;;;;;1.40;100.00;99212.88;5074905;28;20032;-36
2024/01/15 14:36:05;;;;;;;6.20;4.07;;;;;;;1.58;100.00;99205.94;5074804;28;20037;-37
2024/01/15 14:38:30;;;;;;;6.03;3.53;;;;;;;1.57;100.00;99212.19;5073342;28;20040;-37
2024/01/15 14:40:56;;;;;;;7.15;3.38;;;;;;;1.43;100.00;99210.78;5068243;28;20074;-36
2024/01/15 14:43:22;;;;;;;8.13;4.60;;;;;;;1.49;100.00;99215.47;5063083;28;20500;-35
2024/01/15 14:45:47;;;;;;;9.90;4.28;;;;;;;1.46;100.00;99225.44;5064294;28;20074;-36
2024/01/15 14:48:13;;;;;;;6.20;4.03;;;;;;;1.31;100.00;99231.13;5063094;28;20100;-37
2024/01/15 14:50:40;;;;;;;5.35;3.63;;;;;;;1.30;100.00;99239.09;5062959;28;20048;-37
2024/01/15 14:53:05;;;;;;;4.80;3.45;;;;;;;1.18;100.00;99246.31;5064029;28;20037;-37
2024/01/15 14:55:32;;;;;;;4.88;3.38;;;;;;;1.10;100.00;99251.41;5062984;28;20033;-37
2024/01/15 14:57:57;;;;;;;6.13;3.72;;;;;;;1.15;100.00;99251.81;5062554;28;20060;-35
2024/01/15 15:00:23;;;;;;;5.43;3.78;;;;;;;1.23;100.00;99254.56;5064706;28;20041;-38
2024/01/15 15:02:49;;;;;;;5.40;4.13;;;;;;;1.20;100.00;99261.91;5062435;28;20409;-36
2024/01/15 15:05:16;;;;;;;5.78;3.00;;;;;;;0.95;100.00;99265.88;5062927;28;20037;-38
2024/01/15 15:07:43;;;;;;;6.03;3.90;;;;;;;0.94;100.00;99253.75;5064355;28;20067;-37
2024/01/15 15:10:10;;;;;;;5.75;4.05;;;;;;;0.96;100.00;99260.50;5063365;28;20032;-38
2024/01/15 15:12:35;;;;;;;6.30;3.83;;;;;;;1.08;100.00;99259.41;5062525;28;20434;-35
2024/01/15 15:15:01;;;;;;;5.32;3.47;;;;;;;0.99;100.00;99248.91;5064520;28;20093;-36
2024/01/15 15:17:26;;;;;;;3.85;2.80;;;;;;;0.88;100.00;99256.91;5064507;28;20036;-39
2024/01/15 15:19:55;;;;;;;4.15;2.97;;;;;;;0.91;100.00;99267.09;5063350;28;20076;-36
2024/01/15 15:22:21;;;;;;;5.88;3.67;;;;;;;1.00;100.00;99264.50;5063013;28;20393;-37
2024/01/15 15:24:46;;;;;;;4.50;3.50;;;;;;;0.90;100.00;99270.69;5065173;28;20033;-36
2024/01/15 15:27:12;;;;;;;4.63;2.78;;;;;;;0.88;100.00;99277.88;5069980;28;20082;-37
2024/01/15 15:29:37;;;;;;;6.20;3.90;;;;;;;0.87;100.00;99276.22;5064765;28;20043;-37
2024/01/15 15:32:03;;;;;;;4.85;3.20;;;;;;;0.90;100.00;99283.81;5068235;28;20049;-37
2024/01/15 15:34:28;;;;;;;4.32;3.25;;;;;;;0.87;100.00;99294.59;5064545;28;20033;-36
2024/01/15 15:36:54;;;;;;;6.13;3.55;;;;;;;0.74;100.00;99295.66;5061159;28;20531;-36
2024/01/15 15:39:19;;;;;;;5.13;3.55;;;;;;;0.71;100.00;99305.56;5063730;28;20036;-36
2024/01/15 15:41:45;;;;;;;5.35;3.30;;;;;;;0.72;100.00;99302.81;5063041;28;20033;-36
2024/01/15 15:44:12;;;;;;;7.90;3.45;;;;;;;0.82;100.00;99303.66;5062407;28;20115;-35
2024/01/15 15:46:38;;;;;;;5.28;3.22;;;;;;;0.90;100.00;99304.78;5062226;28;20652;-37
2024/01/15 15:49:06;;;;;;;5.63;3.17;;;;;;;0.79;100.00;99314.44;5063645;28;20052;-37
2024/01/15 15:51:32;;;;;;;7.32;3.53;;;;;;;0.80;100.00;99321.34;5062058;28;20037;-38
2024/01/15 15:53:58;;;;;;;5.55;3.45;;;;;;;0.81;100.00;99328.22;5063061;28;20040;-37
2024/01/15 15:56:25;;;;;;;5.50;3.65;;;;;;;0.95;100.00;99316.53;5063410;28;20135;-35
2024/01/15 15:58:51;;;;;;;6.47;4.05;;;;;;;0.89;100.00;99321.50;5061573;28;20480;-37
2024/01/15 16:01:16;;;;;;;5.57;3.00;;;;;;;0.90;100.00;99328.38;5063046;28;20036;-37
2024/01/15 16:03:42;;;;;;;5.28;3.53;;;;;;;0.88;100.00;99323.28;5063289;28;20079;-37
2024/01/15 16:06:07;;;;;;;4.60;3.50;;;;;;;0.81;100.00;99328.22;5060834;28;20385;-35
2024/01/15 16:08:33;;;;;;;4.30;3.30;;;;;;;1.01;100.00;99338.78;5063348;28;20455;-37
2024/01/15 16:10:59;;;;;;;5.15;3.20;;;;;;;0.81;100.00;99341.34;5062830;28;20392;-38
2024/01/15 16:13:24;;;;;;;3.95;2.80;;;;;;;0.79;100.00;99340.66;5061787;28;20044;-37
2024/01/15 16:15:49;;;;;;;4.97;3.90;;;;;;;0.85;100.00;99344.53;5063517;28;20059;-37
2024/01/15 16:18:15;;;;;;;4.93;3.42;;;;;;;0.76;100.00;99358.44;5061832;28;20033;-36
2024/01/15 16:20:41;;;;;;;4.30;3.30;;;;;;;0.69;100.00;99355.50;5061953;28;20025;-37
2024/01/15 16:23:07;;;;;;;6.70;3.63;;;;;;;0.74;100.00;99358.56;5062139;28;20067;-37
2024/01/15 16:25:37;;;;;;;4.32;3.25;;;;;;;0.67;100.00;99362.69;5061730;28;20065;-36
2024/01/15 16:28:06;;;;;;;5.57;3.80;;;;;;;0.74;100.00;99374.31;5061558;28;20388;-34
2024/01/15 16:30:31;;;;;;;4.50;3.25;;;;;;;0.72;100.00;99376.22;5061479;28;20033;-36
2024/01/15 16:32:57;;;;;;;3.33;2.13;;;;;;;0.72;100.00;99384.09;5061813;28;20047;-34
2024/01/15 16:35:22;;;;;;;3.67;2.80;;;;;;;0.69;100.00;99381.72;5062899;28;20573;-36
2024/01/15 16:37:47;;;;;;;3.97;3.05;;;;;;;0.71;100.00;99382.41;5060896;28;20036;-35
2024/01/15 16:40:13;;;;;;;4.40;3.10;;;;;;;0.70;100.00;99379.94;5062795;28;20052;-35
2024/01/15 16:42:39;;;;;;;4.65;3.20;;;;;;;0.76;100.00;99392.50;5061179;28;20056;-36
2024/01/15 16:45:05;;;;;;;5.05;3.50;;;;;;;0.79;100.00;99398.34;5062489;28;20048;-35